Terminal Aerodrome Forecast
Issued by NWS

Home | Current Version | Previous Version | Text Only | Print | Product List | Glossary On
Versions: 1 2 3 4 5 6 7 8 9 10 11 12 13 14
000
FTUS43 KDLH 232333
TAFHYR
TAF
KHYR 232333Z 2400/2424 20005KT P6SM FEW250
     FM240300 00000KT P6SM SCT200
     FM240800 VRB03KT P6SM SCT070 BKN100
     FM241400 02009G14KT P6SM SCT040 BKN080
     FM242000 01008G14KT P6SM SCT080=

USA.gov is the U.S. government's official web portal to all federal, state and local government web resources and services.